createdAt,value
2022-10-29T00:00:01.375Z,34.95
2022-10-29T00:02:37.106Z,30.77
2022-10-29T00:05:04.741Z,25.65
2022-10-29T00:07:32.100Z,33.97
2022-10-29T00:09:59.445Z,23.33
2022-10-29T00:12:27.596Z,23.15
2022-10-29T00:14:54.935Z,15.40
2022-10-29T00:17:22.609Z,18.98
2022-10-29T00:19:50.095Z,21.75
2022-10-29T00:22:17.435Z,12.65
2022-10-29T00:24:44.798Z,13.50
2022-10-29T00:27:12.117Z,16.35
2022-10-29T00:29:39.469Z,21.92
2022-10-29T00:32:08.016Z,18.38
2022-10-29T00:34:35.441Z,15.38
2022-10-29T00:37:04.096Z,14.75
2022-10-29T00:39:33.408Z,16.10
2022-10-29T00:42:01.978Z,14.73
2022-10-29T00:44:38.819Z,14.00
2022-10-29T00:47:28.812Z,18.67
2022-10-29T00:50:25.559Z,13.43
2022-10-29T00:52:54.442Z,14.65
2022-10-29T00:55:21.907Z,14.27
2022-10-29T00:57:53.077Z,13.18
2022-10-29T01:00:21.828Z,10.60
2022-10-29T01:02:50.572Z,13.43
2022-10-29T01:05:21.902Z,11.13
2022-10-29T01:07:49.312Z,13.95
2022-10-29T01:10:17.770Z,15.48
2022-10-29T01:12:54.342Z,22.15
2022-10-29T01:15:34.647Z,16.90
2022-10-29T01:18:20.489Z,16.65
2022-10-29T01:20:59.790Z,12.68
2022-10-29T01:23:45.647Z,16.92
2022-10-29T01:26:50.155Z,24.45
2022-10-29T01:29:54.888Z,21.30
2022-10-29T01:32:36.502Z,28.20
2022-10-29T01:35:19.690Z,18.88
2022-10-29T01:37:54.384Z,24.70
2022-10-29T01:40:49.230Z,29.45
2022-10-29T01:43:31.532Z,22.00
2022-10-29T01:46:06.393Z,18.20
2022-10-29T01:48:38.351Z,15.38
2022-10-29T01:51:11.966Z,17.58
2022-10-29T01:53:39.925Z,26.05
2022-10-29T01:56:07.562Z,25.75
2022-10-29T01:58:38.075Z,17.50
2022-10-29T02:01:18.196Z,22.38
2022-10-29T02:04:24.398Z,23.80
2022-10-29T02:07:33.014Z,15.35
2022-10-29T02:10:15.336Z,20.17
2022-10-29T02:12:53.806Z,20.17
2022-10-29T02:15:36.008Z,20.55
2022-10-29T02:18:06.032Z,17.25
2022-10-29T02:20:33.595Z,27.52
2022-10-29T02:23:02.262Z,12.27
2022-10-29T02:25:29.690Z,17.10
2022-10-29T02:27:59.608Z,16.10
2022-10-29T02:30:26.995Z,10.95
2022-10-29T02:32:54.577Z,13.68
2022-10-29T02:35:22.216Z,14.77
2022-10-29T02:37:49.629Z,10.48
2022-10-29T02:40:16.964Z,12.40
2022-10-29T02:42:44.295Z,10.15
2022-10-29T02:45:11.653Z,9.52
2022-10-29T02:47:38.924Z,12.55
2022-10-29T02:50:06.797Z,12.15
2022-10-29T02:52:34.125Z,18.42
2022-10-29T02:55:01.474Z,13.10
2022-10-29T02:57:28.751Z,12.23
2022-10-29T02:59:56.185Z,7.88
2022-10-29T03:02:23.654Z,11.18
2022-10-29T03:04:50.990Z,13.02
2022-10-29T03:07:18.302Z,9.88
2022-10-29T03:09:45.602Z,11.48
2022-10-29T03:12:13.010Z,14.30
2022-10-29T03:14:40.291Z,11.13
2022-10-29T03:17:07.582Z,13.35
2022-10-29T03:19:34.941Z,10.90
2022-10-29T03:22:02.244Z,17.95
2022-10-29T03:24:29.611Z,16.13
2022-10-29T03:26:56.782Z,15.95
2022-10-29T03:29:24.688Z,12.95
2022-10-29T03:31:52.157Z,9.65
2022-10-29T03:34:19.507Z,14.23
2022-10-29T03:36:46.876Z,13.07
2022-10-29T03:39:14.194Z,10.70
2022-10-29T03:41:41.737Z,10.55
2022-10-29T03:44:09.462Z,9.70
2022-10-29T03:46:36.871Z,9.95
2022-10-29T03:49:04.196Z,11.85
2022-10-29T03:51:31.516Z,10.73
2022-10-29T03:53:58.793Z,11.85
2022-10-29T03:56:26.050Z,10.38
2022-10-29T03:58:53.307Z,7.57
2022-10-29T04:01:23.389Z,7.28
2022-10-29T04:03:50.857Z,9.32
2022-10-29T04:06:18.556Z,7.72
2022-10-29T04:08:45.999Z,8.00
2022-10-29T04:11:14.406Z,9.93
2022-10-29T04:13:41.683Z,7.15
2022-10-29T04:16:09.285Z,7.07
2022-10-29T04:18:36.650Z,5.22
2022-10-29T04:27:24.787Z,6.20
2022-10-29T04:29:26.579Z,13.00
2022-10-29T04:31:53.932Z,7.93
2022-10-29T04:34:21.233Z,11.00
2022-10-29T04:36:48.551Z,13.40
2022-10-29T04:39:18.358Z,11.13
2022-10-29T04:41:49.931Z,10.13
2022-10-29T04:44:17.310Z,6.80
2022-10-29T04:46:44.708Z,6.80
2022-10-29T04:49:12.045Z,10.55
2022-10-29T04:51:39.785Z,8.35
2022-10-29T04:54:07.178Z,6.75
2022-10-29T04:56:34.553Z,10.13
2022-10-29T04:59:02.093Z,11.48
2022-10-29T05:01:31.916Z,10.13
2022-10-29T05:04:00.200Z,9.30
2022-10-29T05:06:27.781Z,8.05
2022-10-29T05:08:55.093Z,7.45
2022-10-29T05:11:22.525Z,11.88
2022-10-29T05:13:49.995Z,12.10
2022-10-29T05:16:17.339Z,8.30
2022-10-29T05:18:47.573Z,8.43
2022-10-29T05:21:17.094Z,7.53
2022-10-29T05:23:44.520Z,7.80
2022-10-29T05:26:11.727Z,8.32
2022-10-29T05:28:39.103Z,7.93
2022-10-29T05:31:06.541Z,7.60
2022-10-29T05:33:33.876Z,6.07
2022-10-29T05:36:01.586Z,12.85
2022-10-29T05:38:28.987Z,6.72
2022-10-29T05:40:58.940Z,8.27
2022-10-29T05:43:26.292Z,7.43
2022-10-29T05:45:54.010Z,12.57
2022-10-29T05:48:21.303Z,9.30
2022-10-29T05:50:48.548Z,6.13
2022-10-29T05:53:15.941Z,8.60
2022-10-29T05:55:43.438Z,9.65
2022-10-29T05:58:13.933Z,4.60
2022-10-29T06:00:44.967Z,10.38
2022-10-29T06:03:14.999Z,11.80
2022-10-29T06:05:42.884Z,9.82
2022-10-29T06:08:11.365Z,17.08
2022-10-29T06:10:38.684Z,20.50
2022-10-29T06:13:33.228Z,19.58
2022-10-29T06:16:01.291Z,18.77
2022-10-29T06:18:28.777Z,17.38
2022-10-29T06:20:59.158Z,19.98
2022-10-29T06:23:27.157Z,35.25
2022-10-29T06:25:54.624Z,26.90
2022-10-29T06:28:22.019Z,35.13
2022-10-29T06:30:50.633Z,28.27
2022-10-29T06:33:18.964Z,29.88
2022-10-29T06:35:46.988Z,31.80
2022-10-29T06:38:14.988Z,53.25
2022-10-29T06:40:43.651Z,43.00
2022-10-29T06:43:12.890Z,28.65
2022-10-29T06:45:40.400Z,27.02
2022-10-29T06:48:07.837Z,24.40
2022-10-29T06:50:35.177Z,33.00
2022-10-29T06:53:07.306Z,23.77
2022-10-29T06:55:36.328Z,22.35
2022-10-29T06:58:11.199Z,16.83
2022-10-29T07:00:38.713Z,11.55
2022-10-29T07:03:08.687Z,9.73
2022-10-29T07:05:36.592Z,12.18
2022-10-29T07:08:04.090Z,20.88
2022-10-29T07:10:33.273Z,12.68
2022-10-29T07:13:01.459Z,7.07
2022-10-29T07:15:30.863Z,13.90
2022-10-29T07:18:07.274Z,8.60
2022-10-29T07:20:42.672Z,10.45
2022-10-29T07:23:11.312Z,8.02
2022-10-29T07:25:40.047Z,10.15
2022-10-29T07:28:18.697Z,13.02
2022-10-29T07:30:46.065Z,12.98
2022-10-29T07:33:13.572Z,11.45
2022-10-29T07:35:41.216Z,27.30
2022-10-29T07:38:11.487Z,36.80
2022-10-29T07:40:41.154Z,24.15
2022-10-29T07:43:09.712Z,19.17
2022-10-29T07:45:37.269Z,12.60
2022-10-29T07:48:10.581Z,9.23
2022-10-29T07:50:39.482Z,13.05
2022-10-29T07:53:07.855Z,13.65
2022-10-29T07:55:35.724Z,18.98
2022-10-29T07:58:06.048Z,13.98
2022-10-29T08:00:35.911Z,17.80
2022-10-29T08:03:03.550Z,16.80
2022-10-29T08:05:31.721Z,13.38
2022-10-29T08:08:00.320Z,13.68
2022-10-29T08:10:28.937Z,18.25
2022-10-29T08:12:58.695Z,15.70
2022-10-29T08:15:28.309Z,10.60
2022-10-29T08:17:56.222Z,17.77
2022-10-29T08:20:26.373Z,14.60
2022-10-29T08:22:54.136Z,10.63
2022-10-29T08:25:22.057Z,10.65
2022-10-29T08:28:00.607Z,11.63
2022-10-29T08:30:28.562Z,11.38
2022-10-29T08:32:56.276Z,14.95
2022-10-29T08:35:24.298Z,6.90
2022-10-29T08:37:52.027Z,12.23
2022-10-29T08:40:47.209Z,18.40
2022-10-29T08:43:27.094Z,23.83
2022-10-29T08:45:56.244Z,21.58
2022-10-29T08:48:48.272Z,13.25
2022-10-29T08:51:31.125Z,17.38
2022-10-29T08:56:56.306Z,19.63
2022-10-29T08:59:26.947Z,16.95
2022-10-29T09:01:54.586Z,17.33
2022-10-29T09:04:33.409Z,15.50
2022-10-29T09:07:09.629Z,13.23
2022-10-29T09:10:04.692Z,20.40
2022-10-29T09:12:56.065Z,15.05
2022-10-29T09:15:37.580Z,14.90
2022-10-29T09:18:26.080Z,12.95
2022-10-29T09:21:16.077Z,29.00
2022-10-29T09:24:05.670Z,29.30
2022-10-29T09:27:00.275Z,19.40
2022-10-29T09:29:53.913Z,21.95
2022-10-29T09:32:52.701Z,20.92
2022-10-29T09:35:23.489Z,17.88
2022-10-29T09:37:58.684Z,22.15
2022-10-29T09:40:37.534Z,16.33
2022-10-29T09:43:40.430Z,19.58
2022-10-29T09:46:19.688Z,21.38
2022-10-29T09:48:57.479Z,11.48
2022-10-29T09:51:44.311Z,14.73
2022-10-29T09:54:12.253Z,13.15
2022-10-29T09:56:43.297Z,11.75
2022-10-29T09:59:28.971Z,12.32
2022-10-29T10:04:37.801Z,10.45
2022-10-29T10:07:13.427Z,12.35
2022-10-29T10:09:58.500Z,16.08
2022-10-29T10:12:29.318Z,13.13
2022-10-29T10:15:30.125Z,16.55
2022-10-29T10:18:01.325Z,14.50
2022-10-29T10:20:36.631Z,14.57
2022-10-29T10:23:27.598Z,13.18
2022-10-29T10:26:03.702Z,10.95
2022-10-29T10:28:37.036Z,12.18
2022-10-29T10:31:04.366Z,12.13
2022-10-29T10:33:35.127Z,5.63
2022-10-29T10:36:08.747Z,9.50
2022-10-29T10:38:45.658Z,7.32
2022-10-29T10:41:15.932Z,11.55
2022-10-29T10:43:48.224Z,11.02
2022-10-29T10:46:34.588Z,11.27
2022-10-29T10:49:18.342Z,9.15
2022-10-29T10:51:51.771Z,15.73
2022-10-29T10:54:34.569Z,13.63
2022-10-29T10:57:05.983Z,12.45
2022-10-29T11:00:00.967Z,13.48
2022-10-29T11:02:38.361Z,10.82
2022-10-29T11:05:12.350Z,16.23
2022-10-29T11:07:55.654Z,10.77
2022-10-29T11:10:31.137Z,9.15
2022-10-29T11:13:03.366Z,10.20
2022-10-29T11:15:48.273Z,7.60
2022-10-29T11:18:25.533Z,12.85
2022-10-29T11:21:05.767Z,15.07
2022-10-29T11:23:55.657Z,9.25
2022-10-29T11:26:28.721Z,11.43
2022-10-29T11:29:06.374Z,8.38
2022-10-29T11:31:45.529Z,14.43
2022-10-29T11:34:38.272Z,13.75
2022-10-29T11:37:28.301Z,10.20
2022-10-29T11:40:18.558Z,9.52
2022-10-29T11:42:48.392Z,8.23
2022-10-29T11:45:35.518Z,6.40
2022-10-29T11:48:16.534Z,6.40
2022-10-29T11:50:50.935Z,12.70
2022-10-29T11:53:34.363Z,12.02
2022-10-29T11:56:10.866Z,8.07
2022-10-29T11:59:01.797Z,9.23
2022-10-29T12:01:48.302Z,5.05
2022-10-29T12:04:24.123Z,7.78
2022-10-29T12:07:29.119Z,9.55
2022-10-29T12:10:15.048Z,13.82
2022-10-29T12:13:00.673Z,9.18
2022-10-29T12:15:32.603Z,12.55
2022-10-29T12:18:07.711Z,14.80
2022-10-29T12:23:38.216Z,7.55
2022-10-29T12:26:20.369Z,15.05
2022-10-29T12:29:03.496Z,11.82
2022-10-29T12:31:36.901Z,8.25
2022-10-29T12:34:30.553Z,13.25
2022-10-29T12:37:23.332Z,10.43
2022-10-29T12:39:58.203Z,10.35
2022-10-29T12:42:27.448Z,12.15
2022-10-29T12:45:19.546Z,12.20
2022-10-29T12:48:03.954Z,9.45
2022-10-29T12:51:00.102Z,14.27
2022-10-29T12:53:44.352Z,9.93
2022-10-29T12:56:16.423Z,14.38
2022-10-29T12:58:57.307Z,20.50
2022-10-29T13:01:50.201Z,10.45
2022-10-29T13:04:29.849Z,8.63
2022-10-29T13:07:07.494Z,11.85
2022-10-29T13:09:37.685Z,13.55
2022-10-29T13:12:12.458Z,11.10
2022-10-29T13:15:09.939Z,14.30
2022-10-29T13:17:40.560Z,12.88
2022-10-29T13:20:30.717Z,8.07
2022-10-29T13:23:05.189Z,11.57
2022-10-29T13:25:38.682Z,12.82
2022-10-29T13:28:14.870Z,7.80
2022-10-29T13:30:46.465Z,9.77
2022-10-29T13:33:31.324Z,9.35
2022-10-29T13:36:27.815Z,12.75
2022-10-29T13:39:05.840Z,11.40
2022-10-29T13:41:43.615Z,10.45
2022-10-29T13:44:13.806Z,7.13
2022-10-29T13:47:09.236Z,11.70
2022-10-29T13:49:45.952Z,8.57
2022-10-29T13:52:19.289Z,12.98
2022-10-29T13:54:59.346Z,17.30
2022-10-29T13:57:48.851Z,7.07
2022-10-29T14:00:22.423Z,7.20
2022-10-29T14:02:55.768Z,7.95
2022-10-29T14:05:52.543Z,8.10
2022-10-29T14:08:36.218Z,17.27
2022-10-29T14:11:12.997Z,9.38
2022-10-29T14:13:50.887Z,14.77
2022-10-29T14:16:21.899Z,9.57
2022-10-29T14:18:50.625Z,13.45
2022-10-29T14:21:23.675Z,10.48
2022-10-29T14:24:05.533Z,13.85
2022-10-29T14:26:38.803Z,10.00
2022-10-29T14:29:25.999Z,6.88
2022-10-29T14:32:12.409Z,13.75
2022-10-29T14:34:43.079Z,8.38
2022-10-29T14:37:32.156Z,18.00
2022-10-29T14:40:16.963Z,13.73
2022-10-29T14:42:48.043Z,12.60
2022-10-29T14:45:28.956Z,7.95
2022-10-29T14:47:58.965Z,15.57
2022-10-29T14:50:28.339Z,17.38
2022-10-29T14:53:06.832Z,19.63
2022-10-29T14:55:43.242Z,14.63
2022-10-29T14:58:10.530Z,16.83
2022-10-29T15:00:39.967Z,15.30
2022-10-29T15:03:08.239Z,16.88
2022-10-29T15:05:39.106Z,19.30
2022-10-29T15:08:13.422Z,19.58
2022-10-29T15:10:51.099Z,25.38
2022-10-29T15:13:37.460Z,16.40
2022-10-29T15:16:18.100Z,16.10
2022-10-29T15:18:54.459Z,23.73
2022-10-29T15:21:31.312Z,18.15
2022-10-29T15:24:09.307Z,17.73
2022-10-29T15:26:46.655Z,18.30
2022-10-29T15:29:14.335Z,18.20
2022-10-29T15:31:53.843Z,22.67
2022-10-29T15:34:35.341Z,18.33
2022-10-29T15:37:34.693Z,21.92
2022-10-29T15:40:07.260Z,17.17
2022-10-29T15:42:36.903Z,23.48
2022-10-29T15:47:53.560Z,21.52
2022-10-29T15:50:24.587Z,29.38
2022-10-29T15:53:02.134Z,24.88
2022-10-29T15:55:32.689Z,26.30
2022-10-29T15:58:07.099Z,25.55
2022-10-29T16:00:37.860Z,30.13
2022-10-29T16:03:14.202Z,26.02
2022-10-29T16:05:43.270Z,24.25
2022-10-29T16:08:33.723Z,22.58
2022-10-29T16:11:05.446Z,29.23
2022-10-29T16:13:33.187Z,25.67
2022-10-29T16:16:00.755Z,28.65
2022-10-29T16:18:30.235Z,26.55
2022-10-29T16:21:01.120Z,28.55
2022-10-29T16:23:28.589Z,23.13
2022-10-29T16:25:56.163Z,21.10
2022-10-29T16:28:23.443Z,29.67
2022-10-29T16:30:56.893Z,26.63
2022-10-29T16:33:24.449Z,34.92
2022-10-29T16:35:53.848Z,30.35
2022-10-29T16:38:21.309Z,29.38
2022-10-29T16:40:48.669Z,26.05
2022-10-29T16:43:16.021Z,29.00
2022-10-29T16:45:46.298Z,34.22
2022-10-29T16:48:15.628Z,34.13
2022-10-29T16:50:44.039Z,32.25
2022-10-29T16:53:13.124Z,25.58
2022-10-29T16:55:42.760Z,29.92
2022-10-29T16:58:14.069Z,24.15
2022-10-29T17:00:45.020Z,25.95
2022-10-29T17:03:14.298Z,30.80
2022-10-29T17:05:45.073Z,30.98
2022-10-29T17:08:12.941Z,35.33
2022-10-29T17:10:40.401Z,39.22
2022-10-29T17:13:09.213Z,51.55
2022-10-29T17:15:39.945Z,44.28
2022-10-29T17:18:11.642Z,35.00
2022-10-29T17:20:43.068Z,32.72
2022-10-29T17:23:10.451Z,27.30
2022-10-29T17:25:40.558Z,34.00
2022-10-29T17:28:07.910Z,25.63
2022-10-29T17:30:42.362Z,36.63
2022-10-29T17:33:10.294Z,25.13
2022-10-29T17:35:37.643Z,29.00
2022-10-29T17:38:05.219Z,28.08
2022-10-29T17:40:32.604Z,34.13
2022-10-29T17:43:00.159Z,26.02
2022-10-29T17:45:27.836Z,22.10
2022-10-29T17:47:59.393Z,25.40
2022-10-29T17:50:27.588Z,19.90
2022-10-29T17:52:58.097Z,20.90
2022-10-29T17:55:25.579Z,22.55
2022-10-29T17:57:53.045Z,22.60
2022-10-29T18:00:20.818Z,23.23
2022-10-29T18:02:51.750Z,17.77
2022-10-29T18:05:19.510Z,19.55
2022-10-29T18:07:46.851Z,20.83
2022-10-29T18:10:14.318Z,25.17
2022-10-29T18:12:43.340Z,17.85
2022-10-29T18:15:10.806Z,24.50
2022-10-29T18:17:40.770Z,17.42
2022-10-29T18:20:08.600Z,14.15
2022-10-29T18:22:36.755Z,13.63
2022-10-29T18:25:04.737Z,15.95
2022-10-29T18:27:32.205Z,22.00
2022-10-29T18:30:00.942Z,15.68
2022-10-29T18:32:29.659Z,17.13
2022-10-29T18:34:57.940Z,20.73
2022-10-29T18:37:25.281Z,15.80
2022-10-29T18:39:53.877Z,15.77
2022-10-29T18:42:21.163Z,18.98
2022-10-29T18:44:49.489Z,13.30
2022-10-29T18:47:18.080Z,13.70
2022-10-29T18:49:45.454Z,13.88
2022-10-29T18:52:13.020Z,18.85
2022-10-29T18:54:41.241Z,10.27
2022-10-29T18:57:08.665Z,10.57
2022-10-29T18:59:36.150Z,10.95
2022-10-29T19:02:03.611Z,16.45
2022-10-29T19:04:31.135Z,14.13
2022-10-29T19:06:59.795Z,9.85
2022-10-29T19:09:29.789Z,10.60
2022-10-29T19:11:59.475Z,12.27
2022-10-29T19:14:27.216Z,13.95
2022-10-29T19:16:54.789Z,17.70
2022-10-29T19:19:23.947Z,20.63
2022-10-29T19:21:51.859Z,12.27
2022-10-29T19:24:20.017Z,13.13
2022-10-29T19:26:47.640Z,16.02
2022-10-29T19:29:15.612Z,21.77
2022-10-29T19:31:48.219Z,16.55
2022-10-29T19:34:15.688Z,22.27
2022-10-29T19:36:43.378Z,14.95
2022-10-29T19:39:10.951Z,13.20
2022-10-29T19:41:38.436Z,12.15
2022-10-29T19:44:06.977Z,16.35
2022-10-29T19:46:35.449Z,15.35
2022-10-29T19:49:03.880Z,13.18
2022-10-29T19:51:31.185Z,12.38
2022-10-29T19:54:01.692Z,12.50
2022-10-29T19:56:31.479Z,16.23
2022-10-29T19:58:58.820Z,16.33
2022-10-29T20:01:27.017Z,15.93
2022-10-29T20:03:54.619Z,19.45
2022-10-29T20:06:22.121Z,16.33
2022-10-29T20:08:49.458Z,22.98
2022-10-29T20:11:17.066Z,25.15
2022-10-29T20:13:44.479Z,27.77
2022-10-29T20:16:15.848Z,19.65
2022-10-29T20:18:43.641Z,34.40
2022-10-29T20:21:12.244Z,35.42
2022-10-29T20:23:39.986Z,39.60
2022-10-29T20:26:08.427Z,59.97
2022-10-29T20:28:35.973Z,57.22
2022-10-29T20:31:13.542Z,46.80
2022-10-29T20:33:40.834Z,59.17
2022-10-29T20:36:08.788Z,40.35
2022-10-29T20:38:36.244Z,49.88
2022-10-29T20:41:03.687Z,36.17
2022-10-29T20:43:31.147Z,33.63
2022-10-29T20:46:02.557Z,42.50
2022-10-29T20:48:30.891Z,63.30
2022-10-29T20:50:59.070Z,38.90
2022-10-29T20:53:26.548Z,34.00
2022-10-29T20:55:53.889Z,29.75
2022-10-29T20:58:22.470Z,32.05
2022-10-29T21:00:50.591Z,36.90
2022-10-29T21:03:20.091Z,36.42
2022-10-29T21:05:49.189Z,34.88
2022-10-29T21:08:16.864Z,53.58
2022-10-29T21:10:44.273Z,39.83
2022-10-29T21:13:11.744Z,38.75
2022-10-29T21:15:39.077Z,32.80
2022-10-29T21:18:07.435Z,38.13
2022-10-29T21:20:46.020Z,32.65
2022-10-29T21:23:13.585Z,33.97
2022-10-29T21:25:41.027Z,31.92
2022-10-29T21:28:08.382Z,31.92
2022-10-29T21:30:36.806Z,35.38
2022-10-29T21:33:04.293Z,40.78
2022-10-29T21:35:31.756Z,36.65
2022-10-29T21:37:59.500Z,43.03
2022-10-29T21:40:27.038Z,42.05
2022-10-29T21:42:54.725Z,35.53
2022-10-29T21:45:22.343Z,51.78
2022-10-29T21:47:49.954Z,42.92
2022-10-29T21:50:17.436Z,38.78
2022-10-29T21:52:44.770Z,34.63
2022-10-29T21:55:12.022Z,35.35
2022-10-29T21:57:46.969Z,36.65
2022-10-29T22:00:16.625Z,49.28
2022-10-29T22:02:43.990Z,67.18
2022-10-29T22:05:14.497Z,67.28
2022-10-29T22:07:41.841Z,60.03
2022-10-29T22:10:10.166Z,61.05
2022-10-29T22:12:37.837Z,48.55
2022-10-29T22:15:06.261Z,61.88
2022-10-29T22:17:33.879Z,50.17
2022-10-29T22:20:01.200Z,41.55
2022-10-29T22:22:36.028Z,34.00
2022-10-29T22:25:05.580Z,35.33
2022-10-29T22:27:32.924Z,30.58
2022-10-29T22:30:00.280Z,27.23
2022-10-29T22:32:28.720Z,31.38
2022-10-29T22:34:57.027Z,36.45
2022-10-29T22:37:24.362Z,34.63
2022-10-29T22:39:52.691Z,28.38
2022-10-29T22:42:19.976Z,34.42
2022-10-29T22:44:47.359Z,27.55
2022-10-29T22:47:14.618Z,36.63
2022-10-29T22:49:41.987Z,31.98
2022-10-29T22:52:09.406Z,20.65
2022-10-29T22:54:39.245Z,25.83
2022-10-29T22:57:06.625Z,24.75
2022-10-29T22:59:34.105Z,26.55
2022-10-29T23:02:01.777Z,32.35
2022-10-29T23:04:29.237Z,27.50
2022-10-29T23:07:01.610Z,22.70
2022-10-29T23:09:29.317Z,22.08
2022-10-29T23:11:56.801Z,24.27
2022-10-29T23:14:25.130Z,20.77
2022-10-29T23:16:53.852Z,21.60
2022-10-29T23:19:21.231Z,25.88
2022-10-29T23:21:49.453Z,14.93
2022-10-29T23:24:16.882Z,23.73
2022-10-29T23:26:44.202Z,26.67
2022-10-29T23:29:11.661Z,33.17
2022-10-29T23:31:39.004Z,34.88
2022-10-29T23:34:07.582Z,25.48
2022-10-29T23:36:34.965Z,25.90
2022-10-29T23:39:03.138Z,21.25
2022-10-29T23:41:31.736Z,23.65
2022-10-29T23:44:00.560Z,29.15
2022-10-29T23:46:27.970Z,23.83
2022-10-29T23:48:55.382Z,31.30
2022-10-29T23:51:23.747Z,43.00
2022-10-29T23:53:54.718Z,34.30
2022-10-29T23:56:25.207Z,23.27
2022-10-29T23:58:52.944Z,27.95
